sensor_id;sensor_type;location;lat;lon;timestamp;P1;durP1;ratioP1;P2;durP2;ratioP2
51296;SDS011;37380;45.186;9.792;2024-01-15T00:01:15;138.18;;;95.97;;
51296;SDS011;37380;45.186;9.792;2024-01-15T00:03:42;138.02;;;99.32;;
51296;SDS011;37380;45.186;9.792;2024-01-15T00:06:13;138.20;;;98.07;;
51296;SDS011;37380;45.186;9.792;2024-01-15T00:08:40;178.00;;;100.47;;
51296;SDS011;37380;45.186;9.792;2024-01-15T00:11:07;173.95;;;101.95;;
51296;SDS011;37380;45.186;9.792;2024-01-15T00:13:34;148.25;;;98.25;;
51296;SDS011;37380;45.186;9.792;2024-01-15T00:16:01;148.27;;;98.70;;
51296;SDS011;37380;45.186;9.792;2024-01-15T00:18:28;201.52;;;98.57;;
51296;SDS011;37380;45.186;9.792;2024-01-15T00:20:55;141.18;;;97.55;;
51296;SDS011;37380;45.186;9.792;2024-01-15T00:23:22;138.68;;;97.00;;
51296;SDS011;37380;45.186;9.792;2024-01-15T00:25:50;222.43;;;104.03;;
51296;SDS011;37380;45.186;9.792;2024-01-15T00:28:18;145.07;;;95.35;;
51296;SDS011;37380;45.186;9.792;2024-01-15T00:30:45;150.90;;;95.93;;
51296;SDS011;37380;45.186;9.792;2024-01-15T00:33:12;181.63;;;98.65;;
51296;SDS011;37380;45.186;9.792;2024-01-15T00:35:41;193.10;;;98.85;;
51296;SDS011;37380;45.186;9.792;2024-01-15T00:38:08;156.60;;;100.35;;
51296;SDS011;37380;45.186;9.792;2024-01-15T00:40:35;141.52;;;97.60;;
51296;SDS011;37380;45.186;9.792;2024-01-15T00:43:02;156.70;;;97.10;;
51296;SDS011;37380;45.186;9.792;2024-01-15T00:45:29;156.45;;;98.53;;
51296;SDS011;37380;45.186;9.792;2024-01-15T00:47:56;143.77;;;100.47;;
51296;SDS011;37380;45.186;9.792;2024-01-15T00:50:23;170.25;;;100.05;;
51296;SDS011;37380;45.186;9.792;2024-01-15T00:52:50;162.85;;;101.18;;
51296;SDS011;37380;45.186;9.792;2024-01-15T00:55:17;159.88;;;103.13;;
51296;SDS011;37380;45.186;9.792;2024-01-15T00:57:44;159.80;;;95.78;;
51296;SDS011;37380;45.186;9.792;2024-01-15T01:00:11;153.93;;;95.65;;
51296;SDS011;37380;45.186;9.792;2024-01-15T01:02:39;155.70;;;94.47;;
51296;SDS011;37380;45.186;9.792;2024-01-15T01:05:07;146.85;;;96.18;;
51296;SDS011;37380;45.186;9.792;2024-01-15T01:07:34;143.23;;;96.30;;
51296;SDS011;37380;45.186;9.792;2024-01-15T01:10:01;150.18;;;99.85;;
51296;SDS011;37380;45.186;9.792;2024-01-15T01:12:29;149.70;;;98.85;;
51296;SDS011;37380;45.186;9.792;2024-01-15T01:14:56;148.57;;;98.20;;
51296;SDS011;37380;45.186;9.792;2024-01-15T01:17:23;146.70;;;96.85;;
51296;SDS011;37380;45.186;9.792;2024-01-15T01:19:51;148.77;;;99.90;;
51296;SDS011;37380;45.186;9.792;2024-01-15T01:22:18;193.88;;;102.63;;
51296;SDS011;37380;45.186;9.792;2024-01-15T01:24:46;161.23;;;100.35;;
51296;SDS011;37380;45.186;9.792;2024-01-15T01:27:13;149.43;;;98.75;;
51296;SDS011;37380;45.186;9.792;2024-01-15T01:29:39;182.98;;;99.43;;
51296;SDS011;37380;45.186;9.792;2024-01-15T01:32:07;164.52;;;104.15;;
51296;SDS011;37380;45.186;9.792;2024-01-15T01:34:39;167.77;;;102.72;;
51296;SDS011;37380;45.186;9.792;2024-01-15T01:37:09;164.63;;;100.38;;
51296;SDS011;37380;45.186;9.792;2024-01-15T01:39:37;155.55;;;103.20;;
51296;SDS011;37380;45.186;9.792;2024-01-15T01:42:04;170.63;;;103.80;;
51296;SDS011;37380;45.186;9.792;2024-01-15T01:44:31;177.45;;;108.07;;
51296;SDS011;37380;45.186;9.792;2024-01-15T01:46:58;172.85;;;113.05;;
51296;SDS011;37380;45.186;9.792;2024-01-15T01:49:27;161.10;;;108.88;;
51296;SDS011;37380;45.186;9.792;2024-01-15T01:51:58;182.63;;;109.65;;
51296;SDS011;37380;45.186;9.792;2024-01-15T01:54:27;179.77;;;105.43;;
51296;SDS011;37380;45.186;9.792;2024-01-15T01:56:56;215.05;;;110.88;;
51296;SDS011;37380;45.186;9.792;2024-01-15T01:59:27;238.73;;;116.45;;
51296;SDS011;37380;45.186;9.792;2024-01-15T02:01:54;189.38;;;113.00;;
51296;SDS011;37380;45.186;9.792;2024-01-15T02:04:22;182.15;;;108.85;;
51296;SDS011;37380;45.186;9.792;2024-01-15T02:06:51;168.93;;;116.50;;
51296;SDS011;37380;45.186;9.792;2024-01-15T02:09:18;177.65;;;112.22;;
51296;SDS011;37380;45.186;9.792;2024-01-15T02:11:46;155.55;;;109.80;;
51296;SDS011;37380;45.186;9.792;2024-01-15T02:14:15;165.68;;;105.78;;
51296;SDS011;37380;45.186;9.792;2024-01-15T02:16:42;157.88;;;105.35;;
51296;SDS011;37380;45.186;9.792;2024-01-15T02:19:16;148.90;;;101.90;;
51296;SDS011;37380;45.186;9.792;2024-01-15T02:21:44;173.90;;;107.32;;
51296;SDS011;37380;45.186;9.792;2024-01-15T02:24:11;153.52;;;104.72;;
51296;SDS011;37380;45.186;9.792;2024-01-15T02:26:39;154.90;;;102.25;;
51296;SDS011;37380;45.186;9.792;2024-01-15T02:29:09;145.90;;;99.35;;
51296;SDS011;37380;45.186;9.792;2024-01-15T02:31:37;148.20;;;98.95;;
51296;SDS011;37380;45.186;9.792;2024-01-15T02:34:04;148.95;;;97.50;;
51296;SDS011;37380;45.186;9.792;2024-01-15T02:36:32;152.38;;;96.10;;
51296;SDS011;37380;45.186;9.792;2024-01-15T02:38:59;131.73;;;93.13;;
51296;SDS011;37380;45.186;9.792;2024-01-15T02:41:26;196.13;;;92.85;;
51296;SDS011;37380;45.186;9.792;2024-01-15T02:43:53;130.07;;;91.85;;
51296;SDS011;37380;45.186;9.792;2024-01-15T02:46:20;124.95;;;87.35;;
51296;SDS011;37380;45.186;9.792;2024-01-15T02:48:47;127.88;;;90.55;;
51296;SDS011;37380;45.186;9.792;2024-01-15T02:51:15;130.68;;;92.07;;
51296;SDS011;37380;45.186;9.792;2024-01-15T02:53:41;153.60;;;93.68;;
51296;SDS011;37380;45.186;9.792;2024-01-15T02:56:08;137.65;;;90.82;;
51296;SDS011;37380;45.186;9.792;2024-01-15T02:58:35;129.18;;;90.55;;
51296;SDS011;37380;45.186;9.792;2024-01-15T03:01:02;128.60;;;88.07;;
51296;SDS011;37380;45.186;9.792;2024-01-15T03:03:29;126.43;;;91.05;;
51296;SDS011;37380;45.186;9.792;2024-01-15T03:05:57;128.93;;;91.20;;
51296;SDS011;37380;45.186;9.792;2024-01-15T19:34:19;82.75;;;68.15;;
51296;SDS011;37380;45.186;9.792;2024-01-15T19:36:47;89.05;;;73.72;;
51296;SDS011;37380;45.186;9.792;2024-01-15T19:39:14;98.88;;;72.70;;
51296;SDS011;37380;45.186;9.792;2024-01-15T19:41:41;94.97;;;71.57;;
51296;SDS011;37380;45.186;9.792;2024-01-15T19:44:08;95.38;;;75.90;;
51296;SDS011;37380;45.186;9.792;2024-01-15T19:46:36;85.18;;;72.35;;
51296;SDS011;37380;45.186;9.792;2024-01-15T19:49:04;107.28;;;79.10;;
51296;SDS011;37380;45.186;9.792;2024-01-15T19:51:34;88.88;;;73.65;;
51296;SDS011;37380;45.186;9.792;2024-01-15T19:54:01;90.22;;;75.53;;
51296;SDS011;37380;45.186;9.792;2024-01-15T19:56:28;91.05;;;74.78;;
51296;SDS011;37380;45.186;9.792;2024-01-15T19:58:55;94.80;;;76.97;;
51296;SDS011;37380;45.186;9.792;2024-01-15T20:01:22;115.63;;;86.30;;
51296;SDS011;37380;45.186;9.792;2024-01-15T20:03:52;117.72;;;85.28;;
51296;SDS011;37380;45.186;9.792;2024-01-15T20:06:19;111.88;;;91.30;;
51296;SDS011;37380;45.186;9.792;2024-01-15T20:11:50;115.10;;;94.32;;
51296;SDS011;37380;45.186;9.792;2024-01-15T20:14:17;122.00;;;95.90;;
51296;SDS011;37380;45.186;9.792;2024-01-15T20:16:44;103.53;;;80.82;;
51296;SDS011;37380;45.186;9.792;2024-01-15T20:19:11;108.90;;;81.13;;
51296;SDS011;37380;45.186;9.792;2024-01-15T20:21:38;106.70;;;86.10;;
51296;SDS011;37380;45.186;9.792;2024-01-15T20:24:06;108.93;;;84.47;;
51296;SDS011;37380;45.186;9.792;2024-01-15T20:26:33;105.57;;;86.30;;
51296;SDS011;37380;45.186;9.792;2024-01-15T20:29:00;106.72;;;85.82;;
51296;SDS011;37380;45.186;9.792;2024-01-15T20:31:27;99.53;;;82.57;;
51296;SDS011;37380;45.186;9.792;2024-01-15T20:33:55;114.00;;;85.82;;
51296;SDS011;37380;45.186;9.792;2024-01-15T20:36:23;115.57;;;87.00;;
51296;SDS011;37380;45.186;9.792;2024-01-15T20:38:50;105.38;;;87.70;;
51296;SDS011;37380;45.186;9.792;2024-01-15T20:41:18;109.25;;;82.18;;
51296;SDS011;37380;45.186;9.792;2024-01-15T20:43:45;112.03;;;87.20;;
51296;SDS011;37380;45.186;9.792;2024-01-15T20:46:12;107.95;;;84.97;;
51296;SDS011;37380;45.186;9.792;2024-01-15T20:48:39;96.45;;;79.07;;
51296;SDS011;37380;45.186;9.792;2024-01-15T20:51:09;96.43;;;79.30;;
51296;SDS011;37380;45.186;9.792;2024-01-15T20:53:38;100.25;;;78.20;;
51296;SDS011;37380;45.186;9.792;2024-01-15T20:56:11;100.25;;;83.25;;
51296;SDS011;37380;45.186;9.792;2024-01-15T20:58:38;112.50;;;89.78;;
51296;SDS011;37380;45.186;9.792;2024-01-15T21:01:06;118.75;;;95.50;;
51296;SDS011;37380;45.186;9.792;2024-01-15T21:03:36;120.63;;;93.13;;
51296;SDS011;37380;45.186;9.792;2024-01-15T21:06:04;110.53;;;91.10;;
51296;SDS011;37380;45.186;9.792;2024-01-15T21:08:31;119.68;;;96.20;;
51296;SDS011;37380;45.186;9.792;2024-01-15T21:10:58;104.18;;;85.50;;
51296;SDS011;37380;45.186;9.792;2024-01-15T21:13:29;105.50;;;86.43;;
51296;SDS011;37380;45.186;9.792;2024-01-15T21:15:56;124.65;;;98.10;;
51296;SDS011;37380;45.186;9.792;2024-01-15T21:18:24;129.00;;;105.03;;
51296;SDS011;37380;45.186;9.792;2024-01-15T21:20:51;175.30;;;126.72;;
51296;SDS011;37380;45.186;9.792;2024-01-15T21:23:19;122.65;;;94.90;;
51296;SDS011;37380;45.186;9.792;2024-01-15T21:25:46;135.32;;;103.20;;
51296;SDS011;37380;45.186;9.792;2024-01-15T21:28:13;127.55;;;92.90;;
51296;SDS011;37380;45.186;9.792;2024-01-15T21:30:40;119.10;;;86.75;;
51296;SDS011;37380;45.186;9.792;2024-01-15T21:33:07;104.05;;;81.28;;
51296;SDS011;37380;45.186;9.792;2024-01-15T21:35:34;105.95;;;85.57;;
51296;SDS011;37380;45.186;9.792;2024-01-15T21:38:01;106.00;;;83.18;;
51296;SDS011;37380;45.186;9.792;2024-01-15T21:40:29;117.05;;;84.68;;
51296;SDS011;37380;45.186;9.792;2024-01-15T21:42:56;108.07;;;82.72;;
51296;SDS011;37380;45.186;9.792;2024-01-15T21:45:23;122.55;;;89.10;;
51296;SDS011;37380;45.186;9.792;2024-01-15T21:47:50;101.95;;;82.00;;
51296;SDS011;37380;45.186;9.792;2024-01-15T21:50:18;102.72;;;81.20;;
51296;SDS011;37380;45.186;9.792;2024-01-15T21:52:45;118.55;;;85.20;;
51296;SDS011;37380;45.186;9.792;2024-01-15T21:55:12;100.75;;;80.72;;
51296;SDS011;37380;45.186;9.792;2024-01-15T21:57:39;93.43;;;77.55;;
51296;SDS011;37380;45.186;9.792;2024-01-15T22:00:08;97.68;;;80.38;;
51296;SDS011;37380;45.186;9.792;2024-01-15T22:02:36;102.55;;;78.80;;
51296;SDS011;37380;45.186;9.792;2024-01-15T22:05:07;108.75;;;82.40;;
51296;SDS011;37380;45.186;9.792;2024-01-15T22:07:41;103.68;;;79.47;;
51296;SDS011;37380;45.186;9.792;2024-01-15T22:12:36;112.68;;;83.97;;
51296;SDS011;37380;45.186;9.792;2024-01-15T22:15:04;102.18;;;79.90;;
51296;SDS011;37380;45.186;9.792;2024-01-15T22:17:31;95.03;;;77.03;;
51296;SDS011;37380;45.186;9.792;2024-01-15T22:19:58;91.38;;;75.07;;
51296;SDS011;37380;45.186;9.792;2024-01-15T22:22:25;94.78;;;72.65;;
51296;SDS011;37380;45.186;9.792;2024-01-15T22:24:53;91.35;;;74.00;;
51296;SDS011;37380;45.186;9.792;2024-01-15T22:27:20;92.57;;;73.65;;
51296;SDS011;37380;45.186;9.792;2024-01-15T22:29:47;103.07;;;77.10;;
51296;SDS011;37380;45.186;9.792;2024-01-15T22:32:17;115.13;;;87.47;;
51296;SDS011;37380;45.186;9.792;2024-01-15T22:34:45;112.28;;;88.28;;
51296;SDS011;37380;45.186;9.792;2024-01-15T22:37:12;94.85;;;77.45;;
51296;SDS011;37380;45.186;9.792;2024-01-15T22:39:40;99.80;;;81.07;;
51296;SDS011;37380;45.186;9.792;2024-01-15T22:42:07;98.13;;;76.70;;
51296;SDS011;37380;45.186;9.792;2024-01-15T22:44:35;88.25;;;72.43;;
51296;SDS011;37380;45.186;9.792;2024-01-15T22:47:04;98.53;;;74.35;;
51296;SDS011;37380;45.186;9.792;2024-01-15T22:49:31;88.95;;;72.95;;
51296;SDS011;37380;45.186;9.792;2024-01-15T22:51:58;89.10;;;71.00;;
51296;SDS011;37380;45.186;9.792;2024-01-15T22:54:25;81.75;;;70.82;;
51296;SDS011;37380;45.186;9.792;2024-01-15T22:56:52;91.90;;;75.80;;
51296;SDS011;37380;45.186;9.792;2024-01-15T22:59:19;102.13;;;81.72;;
51296;SDS011;37380;45.186;9.792;2024-01-15T23:01:48;110.22;;;86.40;;
51296;SDS011;37380;45.186;9.792;2024-01-15T23:04:15;101.13;;;81.03;;
51296;SDS011;37380;45.186;9.792;2024-01-15T23:06:42;99.65;;;76.55;;
51296;SDS011;37380;45.186;9.792;2024-01-15T23:09:09;101.20;;;76.75;;
51296;SDS011;37380;45.186;9.792;2024-01-15T23:11:36;89.03;;;70.57;;
51296;SDS011;37380;45.186;9.792;2024-01-15T23:14:04;93.40;;;74.05;;
51296;SDS011;37380;45.186;9.792;2024-01-15T23:16:31;90.07;;;73.22;;
51296;SDS011;37380;45.186;9.792;2024-01-15T23:18:58;100.93;;;74.57;;
51296;SDS011;37380;45.186;9.792;2024-01-15T23:21:25;92.15;;;73.95;;
51296;SDS011;37380;45.186;9.792;2024-01-15T23:23:53;98.20;;;76.30;;
51296;SDS011;37380;45.186;9.792;2024-01-15T23:26:20;102.07;;;76.90;;
51296;SDS011;37380;45.186;9.792;2024-01-15T23:33:52;93.93;;;77.80;;
51296;SDS011;37380;45.186;9.792;2024-01-15T23:36:19;105.32;;;82.85;;
51296;SDS011;37380;45.186;9.792;2024-01-15T23:38:46;98.05;;;79.80;;
51296;SDS011;37380;45.186;9.792;2024-01-15T23:41:17;101.30;;;84.07;;
51296;SDS011;37380;45.186;9.792;2024-01-15T23:43:45;89.70;;;76.22;;
51296;SDS011;37380;45.186;9.792;2024-01-15T23:46:14;94.93;;;76.68;;
51296;SDS011;37380;45.186;9.792;2024-01-15T23:48:45;101.47;;;79.45;;
51296;SDS011;37380;45.186;9.792;2024-01-15T23:51:13;92.38;;;77.22;;
51296;SDS011;37380;45.186;9.792;2024-01-15T23:53:40;95.90;;;77.25;;
51296;SDS011;37380;45.186;9.792;2024-01-15T23:56:07;100.97;;;80.32;;
51296;SDS011;37380;45.186;9.792;2024-01-15T23:58:36;101.05;;;81.40;;
